Time;durP1;ratioP1;P1;durP2;ratioP2;P2;SDS_P1;SDS_P2;PMS_P1;PMS_P2;Temp;Humidity;BMP_temperature;BMP_pressure;BME280_temperature;BME280_humidity;BME280_pressure;Samples;Min_cycle;Max_cycle;Signal;HPM_P1;HPM_P2
2023/09/29 00:01:58;;;;;;;19.53;6.73;;;15.60;99.90;;;;;;5001041;28;20927;-78
2023/09/29 00:04:25;;;;;;;22.35;7.03;;;15.70;99.90;;;;;;4989829;28;20429;-79
2023/09/29 00:06:51;;;;;;;21.27;7.05;;;15.70;99.90;;;;;;4989004;28;20440;-79
2023/09/29 00:09:17;;;;;;;21.73;6.80;;;15.70;99.90;;;;;;4991049;28;20897;-79
2023/09/29 00:11:43;;;;;;;16.83;7.03;;;15.70;99.90;;;;;;4991120;28;20421;-79
2023/09/29 00:14:08;;;;;;;19.13;6.53;;;15.70;99.90;;;;;;5007082;28;21014;-78
2023/09/29 00:16:34;;;;;;;19.83;6.57;;;15.80;99.90;;;;;;5006811;28;20409;-78
2023/09/29 00:19:00;;;;;;;23.17;6.80;;;15.70;99.90;;;;;;4979764;28;20423;-79
2023/09/29 00:21:26;;;;;;;20.53;6.03;;;15.80;99.90;;;;;;4989213;28;20407;-78
2023/09/29 00:23:51;;;;;;;19.10;6.40;;;16.20;99.90;;;;;;4978782;28;20452;-79
2023/09/29 00:26:17;;;;;;;20.73;6.38;;;15.80;99.90;;;;;;4988723;28;20429;-78
2023/09/29 00:28:44;;;;;;;18.00;6.03;;;15.90;99.90;;;;;;5002665;28;20420;-78
2023/09/29 00:31:10;;;;;;;21.27;6.28;;;15.80;99.90;;;;;;4991871;28;20415;-78
2023/09/29 00:33:36;;;;;;;17.67;5.82;;;14.40;99.90;;;;;;4990574;28;20500;-79
2023/09/29 00:36:01;;;;;;;21.37;7.60;;;15.80;99.90;;;;;;4974936;28;20994;-78
2023/09/29 00:38:30;;;;;;;24.90;6.90;;;15.80;99.90;;;;;;4991465;28;20440;-78
2023/09/29 00:40:56;;;;;;;19.98;6.40;;;16.00;99.90;;;;;;5005320;28;20432;-79
2023/09/29 00:43:22;;;;;;;24.73;6.87;;;16.10;99.90;;;;;;4972919;28;20433;-79
2023/09/29 00:45:48;;;;;;;19.83;6.25;;;16.10;99.90;;;;;;4998320;28;20441;-79
2023/09/29 00:48:15;;;;;;;22.08;7.03;;;15.80;99.90;;;;;;4972643;28;20448;-79
2023/09/29 00:50:41;;;;;;;21.08;6.78;;;16.00;99.90;;;;;;4960578;28;20456;-79
2023/09/29 00:53:11;;;;;;;21.48;6.60;;;15.70;99.90;;;;;;4982174;28;20431;-79
2023/09/29 00:55:41;;;;;;;19.85;6.43;;;16.00;99.90;;;;;;4972395;28;20534;-79
2023/09/29 00:58:08;;;;;;;22.75;7.30;;;16.00;99.90;;;;;;4977832;28;20422;-79
2023/09/29 01:00:37;;;;;;;18.17;7.00;;;16.00;99.90;;;;;;4977923;28;20493;-79
2023/09/29 01:03:12;;;;;;;20.30;6.55;;;16.00;99.90;;;;;;4971020;28;20433;-79
2023/09/29 01:05:43;;;;;;;20.75;6.53;;;16.00;99.90;;;;;;5002848;28;20442;-79
2023/09/29 01:08:12;;;;;;;19.35;6.20;;;15.90;99.90;;;;;;4990746;28;20412;-79
2023/09/29 01:10:41;;;;;;;19.40;6.05;;;15.90;99.90;;;;;;5007815;28;20400;-79
2023/09/29 01:13:08;;;;;;;20.83;6.70;;;15.80;99.90;;;;;;5007138;28;20420;-79
2023/09/29 01:15:34;;;;;;;22.15;7.10;;;15.80;99.90;;;;;;4996505;28;20433;-79
2023/09/29 01:18:01;;;;;;;22.92;6.60;;;15.80;99.90;;;;;;4995883;28;20425;-79
2023/09/29 01:20:28;;;;;;;22.05;6.63;;;15.90;99.90;;;;;;4997292;28;20918;-79
2023/09/29 01:23:00;;;;;;;21.70;7.00;;;15.80;99.90;;;;;;4987996;28;20480;-79
2023/09/29 01:25:26;;;;;;;17.80;6.40;;;15.80;99.90;;;;;;4973507;28;20437;-79
2023/09/29 01:27:52;;;;;;;23.80;6.55;;;15.70;99.90;;;;;;4973182;28;20426;-79
2023/09/29 01:30:21;;;;;;;20.17;6.60;;;15.90;99.90;;;;;;4972495;28;20415;-79
2023/09/29 01:32:48;;;;;;;25.13;6.53;;;15.80;99.90;;;;;;4979966;28;20433;-79
2023/09/29 01:35:17;;;;;;;19.65;6.50;;;15.80;99.90;;;;;;4981004;28;20468;-79
2023/09/29 01:37:47;;;;;;;19.40;7.10;;;15.80;99.90;;;;;;4978971;28;20430;-78
2023/09/29 01:40:14;;;;;;;20.90;6.13;;;15.60;99.90;;;;;;4987079;28;20484;-78
2023/09/29 01:42:41;;;;;;;24.25;6.85;;;15.80;99.90;;;;;;4988612;28;20432;-79
2023/09/29 01:45:15;;;;;;;22.85;6.38;;;15.80;99.90;;;;;;4972026;28;20403;-78
2023/09/29 01:47:45;;;;;;;22.33;6.65;;;15.60;99.90;;;;;;4990026;28;20433;-78
2023/09/29 01:50:14;;;;;;;18.90;6.67;;;16.00;99.90;;;;;;4971079;28;20442;-79
2023/09/29 01:52:41;;;;;;;19.88;6.55;;;15.90;99.90;;;;;;4979603;28;20989;-78
2023/09/29 01:55:12;;;;;;;18.48;6.43;;;15.80;99.90;;;;;;4993075;28;20483;-78
2023/09/29 01:57:38;;;;;;;19.38;6.80;;;15.80;99.90;;;;;;4986362;28;20409;-79
2023/09/29 02:00:05;;;;;;;23.55;7.10;;;15.60;99.90;;;;;;4981701;28;20418;-79
2023/09/29 02:02:31;;;;;;;20.60;6.88;;;15.90;99.90;;;;;;4978761;28;20789;-79
2023/09/29 02:04:56;;;;;;;21.17;7.33;;;15.70;99.90;;;;;;5002726;28;20424;-79
2023/09/29 02:07:24;;;;;;;20.83;6.90;;;15.70;99.90;;;;;;5010434;28;21136;-79
2023/09/29 02:09:50;;;;;;;19.80;7.05;;;15.80;99.90;;;;;;5003887;28;20422;-79
2023/09/29 02:12:17;;;;;;;17.65;7.13;;;15.60;99.90;;;;;;4994363;28;20443;-79
2023/09/29 02:14:43;;;;;;;17.48;6.65;;;15.80;99.90;;;;;;5001370;28;21911;-78
2023/09/29 02:17:09;;;;;;;19.90;6.38;;;15.80;99.90;;;;;;4976614;28;20426;-79
2023/09/29 02:19:35;;;;;;;19.33;6.68;;;15.80;99.90;;;;;;4994643;28;20486;-79
2023/09/29 02:22:03;;;;;;;20.63;6.73;;;15.70;99.90;;;;;;4977793;28;20501;-79
2023/09/29 02:24:29;;;;;;;18.90;6.60;;;15.70;99.90;;;;;;5001330;28;20487;-79
2023/09/29 02:26:55;;;;;;;17.58;6.50;;;15.70;99.90;;;;;;4973427;28;20426;-79
2023/09/29 02:29:21;;;;;;;21.15;7.05;;;15.70;99.90;;;;;;5000876;28;20688;-79
2023/09/29 02:31:46;;;;;;;18.95;6.60;;;16.10;99.90;;;;;;4986033;28;20929;-79
2023/09/29 02:34:15;;;;;;;18.67;6.20;;;15.70;99.90;;;;;;5002541;28;20426;-79
2023/09/29 02:36:40;;;;;;;22.08;7.03;;;15.60;99.90;;;;;;4958424;28;20499;-78
2023/09/29 02:39:08;;;;;;;20.58;7.30;;;15.90;99.90;;;;;;4984140;28;20508;-78
2023/09/29 02:41:35;;;;;;;21.35;7.22;;;15.70;99.90;;;;;;4993748;28;20925;-79
2023/09/29 02:44:01;;;;;;;19.63;6.80;;;16.00;99.90;;;;;;4980945;28;20787;-79
2023/09/29 02:46:27;;;;;;;21.00;7.35;;;15.70;99.90;;;;;;5001915;28;21017;-79
2023/09/29 02:48:53;;;;;;;21.65;6.65;;;15.80;99.90;;;;;;5008698;28;20507;-79
2023/09/29 02:51:19;;;;;;;18.58;6.68;;;15.80;99.90;;;;;;5008681;28;20424;-78
2023/09/29 02:53:48;;;;;;;15.15;6.97;;;15.60;99.90;;;;;;4998710;28;20423;-78
2023/09/29 02:56:16;;;;;;;15.98;6.07;;;15.80;99.90;;;;;;4999457;28;20784;-78
2023/09/29 02:58:43;;;;;;;19.20;6.55;;;15.90;99.90;;;;;;4990923;28;20422;-79
2023/09/29 03:01:12;;;;;;;19.63;5.93;;;15.90;99.90;;;;;;5001705;28;20436;-79
2023/09/29 03:03:43;;;;;;;21.95;6.28;;;15.80;99.90;;;;;;4990788;28;20491;-79
2023/09/29 03:06:12;;;;;;;19.25;6.50;;;16.00;99.90;;;;;;4989377;28;20486;-79
2023/09/29 03:08:39;;;;;;;20.00;6.50;;;15.80;99.90;;;;;;4973724;28;20422;-79
2023/09/29 03:11:09;;;;;;;17.50;6.00;;;15.80;99.90;;;;;;4995161;28;20552;-79
2023/09/29 03:13:37;;;;;;;18.30;5.63;;;15.80;99.90;;;;;;4990057;28;20498;-80
2023/09/29 03:16:07;;;;;;;20.48;6.18;;;15.80;99.90;;;;;;5009496;28;20417;-79
2023/09/29 03:18:34;;;;;;;16.50;5.65;;;15.90;99.90;;;;;;5009509;28;20409;-79
2023/09/29 03:21:01;;;;;;;16.73;5.78;;;16.00;99.90;;;;;;5009642;28;20465;-79
2023/09/29 03:23:28;;;;;;;19.58;6.50;;;15.90;99.90;;;;;;4964254;28;20802;-79
2023/09/29 03:25:55;;;;;;;17.58;5.75;;;15.80;99.90;;;;;;4978504;28;20426;-79
2023/09/29 03:28:21;;;;;;;19.38;5.60;;;16.10;99.90;;;;;;4958416;28;20504;-79
2023/09/29 03:30:46;;;;;;;17.70;6.07;;;15.90;99.90;;;;;;4974317;28;20435;-78
2023/09/29 03:33:13;;;;;;;16.83;5.38;;;15.90;99.90;;;;;;4952418;28;20428;-79
2023/09/29 03:35:40;;;;;;;20.20;6.25;;;15.90;99.90;;;;;;5004801;28;20477;-79
2023/09/29 03:38:06;;;;;;;16.65;5.22;;;16.00;99.90;;;;;;5000521;28;20765;-79
2023/09/29 03:40:32;;;;;;;18.07;6.43;;;15.90;99.90;;;;;;5009481;28;20415;-79
2023/09/29 03:42:58;;;;;;;20.90;6.00;;;16.00;99.90;;;;;;4997628;28;20427;-79
2023/09/29 03:45:27;;;;;;;17.83;5.70;;;16.00;99.90;;;;;;4997393;28;20445;-79
2023/09/29 03:47:52;;;;;;;16.20;5.50;;;16.00;99.90;;;;;;4983329;28;20434;-79
2023/09/29 03:50:18;;;;;;;15.80;5.90;;;16.20;99.90;;;;;;4995586;28;20416;-79
2023/09/29 03:52:45;;;;;;;18.67;5.70;;;15.80;99.90;;;;;;4999303;28;20977;-79
2023/09/29 03:55:14;;;;;;;18.97;6.17;;;;;;;;;;4975980;28;20906;-79
2023/09/29 03:57:48;;;;;;;13.57;5.25;;;16.10;99.90;;;;;;4977633;28;20421;-78
2023/09/29 04:00:16;;;;;;;15.68;5.60;;;16.00;99.90;;;;;;4972687;28;20438;-78
2023/09/29 04:02:42;;;;;;;15.25;5.75;;;15.90;99.90;;;;;;4988320;28;20434;-79
2023/09/29 04:05:09;;;;;;;16.23;5.55;;;16.20;99.90;;;;;;4975486;28;20433;-78
2023/09/29 04:07:36;;;;;;;16.27;5.93;;;16.20;99.90;;;;;;4984436;28;20433;-79
2023/09/29 04:10:08;;;;;;;21.00;5.70;;;16.00;99.90;;;;;;4974961;28;20445;-78
2023/09/29 04:12:34;;;;;;;16.83;6.03;;;16.20;99.90;;;;;;4989531;28;20456;-78
2023/09/29 04:15:00;;;;;;;17.88;6.25;;;16.10;99.90;;;;;;4972988;28;20516;-78
2023/09/29 04:17:26;;;;;;;14.13;5.90;;;16.00;99.90;;;;;;4970941;28;21247;-79
2023/09/29 04:19:53;;;;;;;16.55;6.00;;;16.40;99.90;;;;;;4993190;28;20467;-79
2023/09/29 04:22:19;;;;;;;17.05;6.47;;;16.20;99.90;;;;;;4991122;28;20684;-79
2023/09/29 04:24:45;;;;;;;18.05;6.28;;;16.20;99.90;;;;;;4990677;28;20429;-77
2023/09/29 04:27:10;;;;;;;19.02;6.10;;;16.30;99.90;;;;;;4991324;28;20497;-78
2023/09/29 04:29:36;;;;;;;17.35;6.40;;;16.30;99.90;;;;;;5007296;28;20768;-79
2023/09/29 04:32:03;;;;;;;14.73;6.00;;;16.30;99.90;;;;;;4975294;28;20405;-77
2023/09/29 04:34:29;;;;;;;16.58;6.80;;;16.40;99.90;;;;;;4976153;28;20431;-77
2023/09/29 04:36:57;;;;;;;20.52;7.45;;;16.40;99.90;;;;;;4933791;28;20459;-77
2023/09/29 04:39:24;;;;;;;15.63;5.72;;;16.30;99.90;;;;;;4934187;28;20469;-78
2023/09/29 04:41:51;;;;;;;14.25;5.10;;;16.40;99.90;;;;;;4941162;28;20544;-77
2023/09/29 04:44:25;;;;;;;18.15;6.00;;;16.50;99.90;;;;;;4930019;28;21003;-77
2023/09/29 04:46:51;;;;;;;20.40;5.93;;;16.10;99.90;;;;;;4935257;28;21207;-77
2023/09/29 04:49:17;;;;;;;21.85;6.63;;;16.20;99.90;;;;;;4943421;28;20507;-77
2023/09/29 04:51:43;;;;;;;17.55;6.00;;;16.30;99.90;;;;;;4932828;28;21000;-77
2023/09/29 04:54:12;;;;;;;17.52;5.72;;;16.50;99.90;;;;;;4926849;28;20821;-77
2023/09/29 04:56:39;;;;;;;17.60;6.13;;;16.00;99.90;;;;;;4913851;28;21515;-77
2023/09/29 04:59:08;;;;;;;14.88;5.50;;;16.20;99.90;;;;;;5013548;28;20923;-79
2023/09/29 05:01:36;;;;;;;16.05;5.40;;;16.30;99.90;;;;;;4897058;29;20433;-79
2023/09/29 05:04:02;;;;;;;14.57;6.03;;;16.40;99.90;;;;;;4926840;28;20428;-80
2023/09/29 05:06:29;;;;;;;17.30;5.35;;;16.30;99.90;;;;;;4942973;28;20437;-80
2023/09/29 05:08:56;;;;;;;17.13;5.57;;;16.50;99.90;;;;;;4964223;28;20893;-79
2023/09/29 05:11:27;;;;;;;13.25;4.68;;;16.70;99.90;;;;;;4988454;28;20425;-77
2023/09/29 05:13:53;;;;;;;13.43;5.45;;;16.40;99.90;;;;;;4972699;28;20454;-76
2023/09/29 05:16:19;;;;;;;17.02;5.72;;;16.50;99.90;;;;;;4991516;28;20422;-76
2023/09/29 05:18:48;;;;;;;16.65;5.80;;;16.60;99.90;;;;;;4960771;28;20430;-77
2023/09/29 05:21:14;;;;;;;15.10;5.83;;;16.70;99.90;;;;;;4971153;28;20434;-77
2023/09/29 05:23:42;;;;;;;15.60;5.63;;;16.60;99.90;;;;;;4984316;28;20997;-76
2023/09/29 05:26:13;;;;;;;14.90;5.28;;;16.70;99.90;;;;;;4980339;28;20436;-76
2023/09/29 05:28:39;;;;;;;15.80;5.45;;;16.60;99.90;;;;;;4984396;28;20413;-75
2023/09/29 05:31:05;;;;;;;18.35;6.13;;;16.80;99.90;;;;;;4971662;28;20915;-75
2023/09/29 05:33:31;;;;;;;17.55;6.07;;;16.60;99.90;;;;;;4980489;28;20420;-76
2023/09/29 05:36:00;;;;;;;13.30;5.35;;;16.50;99.90;;;;;;4991264;28;20437;-76
2023/09/29 05:38:28;;;;;;;14.88;5.68;;;16.60;99.90;;;;;;4969219;28;20426;-76
2023/09/29 05:40:54;;;;;;;16.35;6.32;;;15.90;99.90;;;;;;4977727;28;20436;-77
2023/09/29 05:43:20;;;;;;;15.48;5.53;;;17.50;99.90;;;;;;4971787;28;20429;-76
2023/09/29 05:45:49;;;;;;;15.05;6.25;;;16.70;99.90;;;;;;4982059;28;20749;-77
2023/09/29 05:48:18;;;;;;;14.75;6.60;;;16.60;99.90;;;;;;4986367;28;20434;-77
2023/09/29 05:50:44;;;;;;;16.33;5.85;;;15.40;99.90;;;;;;4984538;28;20732;-77
2023/09/29 05:53:11;;;;;;;15.33;6.27;;;16.60;99.90;;;;;;4961901;28;20509;-77
2023/09/29 05:55:38;;;;;;;14.20;5.67;;;16.60;99.90;;;;;;4975767;28;20435;-77
2023/09/29 05:58:04;;;;;;;11.97;5.93;;;16.60;99.90;;;;;;4998943;28;20433;-77
2023/09/29 06:00:30;;;;;;;15.52;6.15;;;16.60;99.90;;;;;;4961000;28;21424;-76
2023/09/29 06:02:56;;;;;;;13.52;5.57;;;16.50;99.90;;;;;;4960227;28;20517;-76
2023/09/29 06:05:22;;;;;;;13.07;6.00;;;15.50;99.90;;;;;;4979902;28;20419;-76
2023/09/29 06:07:49;;;;;;;13.52;6.50;;;15.90;99.90;;;;;;4981501;28;20938;-77
2023/09/29 06:10:15;;;;;;;17.83;6.17;;;16.70;99.90;;;;;;4985132;28;20455;-76
2023/09/29 06:12:41;;;;;;;14.90;6.35;;;15.10;99.90;;;;;;4957587;28;20418;-77
2023/09/29 06:15:10;;;;;;;15.43;5.97;;;16.60;99.90;;;;;;4977814;28;20930;-77
2023/09/29 06:17:46;;;;;;;13.40;6.28;;;16.70;99.90;;;;;;4984687;28;20416;-77
2023/09/29 06:20:18;;;;;;;14.73;6.30;;;18.00;99.90;;;;;;4994607;28;20469;-77
2023/09/29 06:22:47;;;;;;;17.40;7.03;;;16.60;99.90;;;;;;4998036;28;20783;-77
2023/09/29 06:25:16;;;;;;;14.43;6.80;;;17.60;99.90;;;;;;4977733;28;20984;-77
2023/09/29 06:27:51;;;;;;;18.27;7.27;;;16.60;99.90;;;;;;4976150;28;20498;-77
2023/09/29 06:30:34;;;;;;;17.08;6.45;;;16.90;99.90;;;;;;4963196;28;21058;-77
2023/09/29 06:33:01;;;;;;;13.43;6.73;;;16.70;99.90;;;;;;4975108;28;20491;-77
2023/09/29 06:35:30;;;;;;;14.97;6.27;;;16.60;99.90;;;;;;4989253;28;20517;-78
2023/09/29 06:37:57;;;;;;;14.63;6.47;;;16.50;99.90;;;;;;4972838;28;20524;-78
2023/09/29 06:40:23;;;;;;;14.75;6.95;;;15.60;99.90;;;;;;4985762;28;20481;-78
2023/09/29 06:42:56;;;;;;;16.10;6.45;;;19.20;99.90;;;;;;4975392;28;20431;-79
2023/09/29 06:45:22;;;;;;;15.33;6.90;;;16.80;99.90;;;;;;4969946;28;20425;-78
2023/09/29 06:47:51;;;;;;;13.53;6.10;;;16.90;99.90;;;;;;4980075;28;20409;-77
2023/09/29 06:50:17;;;;;;;15.20;6.35;;;16.80;99.90;;;;;;4982136;28;20430;-77
2023/09/29 06:52:44;;;;;;;14.73;6.68;;;16.60;99.90;;;;;;4991082;28;20830;-78
2023/09/29 06:55:13;;;;;;;14.95;5.80;;;16.70;99.90;;;;;;4955563;28;20838;-77
2023/09/29 06:57:42;;;;;;;13.73;5.80;;;18.50;99.90;;;;;;4976211;28;20564;-77
2023/09/29 07:00:12;;;;;;;14.13;6.28;;;16.90;99.90;;;;;;5007316;28;20421;-77
2023/09/29 07:02:48;;;;;;;14.27;5.78;;;17.00;99.90;;;;;;4985463;28;20426;-77
2023/09/29 07:05:17;;;;;;;16.70;6.13;;;17.00;99.90;;;;;;4990527;28;20515;-76
2023/09/29 07:07:46;;;;;;;17.38;6.70;;;17.20;99.90;;;;;;4982765;28;20414;-76
2023/09/29 07:10:15;;;;;;;12.02;5.70;;;17.80;99.90;;;;;;4981782;28;20525;-76
2023/09/29 07:12:41;;;;;;;15.45;6.18;;;17.20;99.90;;;;;;4993080;28;20423;-76
2023/09/29 07:15:13;;;;;;;11.35;5.95;;;17.50;99.90;;;;;;4969840;28;20501;-77
2023/09/29 07:17:39;;;;;;;12.05;5.40;;;17.30;99.90;;;;;;4978763;28;20898;-77
2023/09/29 07:20:12;;;;;;;12.13;5.40;;;17.10;99.90;;;;;;4987016;28;20417;-76
2023/09/29 07:23:19;;;;;;;11.43;5.40;;;17.50;99.90;;;;;;4984222;28;20930;-76
2023/09/29 07:25:48;;;;;;;10.83;5.20;;;17.40;99.90;;;;;;4999200;28;20411;-76
2023/09/29 07:28:20;;;;;;;11.65;5.38;;;17.50;99.90;;;;;;4982118;28;20413;-76
2023/09/29 07:34:29;;;;;;;12.38;5.32;;;20.40;99.90;;;;;;5020523;28;20422;-77
2023/09/29 07:37:35;;;;;;;13.48;5.28;;;17.50;99.90;;;;;;4978899;28;20517;-77
2023/09/29 07:40:38;;;;;;;10.07;5.22;;;18.60;99.90;;;;;;4979203;28;20417;-77
2023/09/29 07:43:13;;;;;;;9.90;5.30;;;20.20;99.90;;;;;;4983387;28;20430;-77
2023/09/29 07:46:03;;;;;;;12.45;5.20;;;18.10;99.90;;;;;;4993884;28;20487;-77
2023/09/29 07:48:29;;;;;;;9.52;4.80;;;18.40;99.90;;;;;;4973647;28;20419;-77
2023/09/29 07:50:55;;;;;;;8.65;4.47;;;18.50;99.90;;;;;;4987131;28;20413;-77
2023/09/29 07:53:21;;;;;;;9.02;5.00;;;18.70;99.90;;;;;;4977562;28;20460;-78
2023/09/29 07:56:00;;;;;;;7.97;4.77;;;18.30;99.90;;;;;;4977032;28;20474;-78
2023/09/29 07:58:25;;;;;;;11.88;5.28;;;19.20;99.90;;;;;;4985552;28;20433;-77
2023/09/29 08:01:23;;;;;;;;;;;;;;;;;;;;;
2023/09/29 08:04:42;;;;;;;8.65;4.70;;;18.40;99.90;;;;;;4966258;28;20866;-77
2023/09/29 08:07:24;;;;;;;8.88;4.35;;;18.90;99.90;;;;;;5029539;28;20524;-78
2023/09/29 08:09:56;;;;;;;9.65;4.50;;;19.20;99.90;;;;;;4992777;28;20419;-77
2023/09/29 08:12:37;;;;;;;9.70;4.72;;;20.60;99.90;;;;;;5004517;28;20474;-77
2023/09/29 08:15:13;;;;;;;10.23;4.75;;;18.80;99.90;;;;;;5004277;28;20414;-78
2023/09/29 08:17:50;;;;;;;11.00;4.57;;;19.00;99.90;;;;;;5025240;28;20492;-77
2023/09/29 08:20:53;;;;;;;10.80;4.65;;;18.60;99.90;;;;;;5007905;28;20430;-78
2023/09/29 08:23:20;;;;;;;9.90;4.40;;;20.20;99.90;;;;;;5011284;28;20427;-77
2023/09/29 08:25:55;;;;;;;7.47;4.30;;;19.30;99.90;;;;;;5019091;28;20422;-77
2023/09/29 08:28:44;;;;;;;8.80;4.53;;;20.90;99.90;;;;;;5006343;28;20412;-77
2023/09/29 08:31:25;;;;;;;6.80;4.05;;;18.10;99.90;;;;;;5004390;28;20423;-77
2023/09/29 08:34:33;;;;;;;9.32;4.50;;;20.10;99.90;;;;;;4994655;28;20426;-77
2023/09/29 08:37:26;;;;;;;;;;;;;;;;;;;;;
2023/09/29 08:40:40;;;;;;;9.33;4.20;;;20.20;99.90;;;;;;4993246;28;20410;-78
2023/09/29 08:43:19;;;;;;;8.38;3.90;;;17.80;99.90;;;;;;5015514;28;20768;-78
2023/09/29 08:46:00;;;;;;;7.13;3.95;;;20.00;99.90;;;;;;4956469;28;20468;-78
2023/09/29 08:48:47;;;;;;;8.17;4.00;;;20.40;99.90;;;;;;4967870;28;20430;-78
2023/09/29 08:51:19;;;;;;;9.18;3.42;;;19.30;99.90;;;;;;4957246;28;20436;-77
2023/09/29 08:53:50;;;;;;;7.00;3.80;;;17.30;99.90;;;;;;4953834;28;20435;-78
2023/09/29 08:56:29;;;;;;;7.00;3.57;;;19.20;99.90;;;;;;4955779;28;20883;-79
2023/09/29 08:59:45;;;;;;;7.55;3.60;;;20.70;99.90;;;;;;4953302;28;20460;-78
2023/09/29 09:02:11;;;;;;;9.27;4.05;;;18.80;99.90;;;;;;4978349;28;20464;-78
2023/09/29 09:05:21;;;;;;;7.80;3.53;;;20.10;99.90;;;;;;4932200;28;20960;-79
2023/09/29 09:08:08;;;;;;;7.80;3.50;;;20.20;99.90;;;;;;4977504;28;20401;-78
2023/09/29 09:10:35;;;;;;;9.10;4.10;;;20.70;99.90;;;;;;4943125;28;20411;-80
2023/09/29 09:14:15;;;;;;;8.95;4.05;;;20.30;99.90;;;;;;4953021;28;20500;-78
2023/09/29 09:16:55;;;;;;;8.40;3.97;;;20.70;99.90;;;;;;5037977;28;20449;-79
2023/09/29 09:19:21;;;;;;;9.10;3.63;;;20.90;99.90;;;;;;5000886;28;20489;-78
2023/09/29 09:22:53;;;;;;;6.90;3.70;;;20.80;99.90;;;;;;5006334;28;20506;-78
2023/09/29 09:25:43;;;;;;;8.55;3.92;;;20.10;99.90;;;;;;4988259;28;20431;-79
2023/09/29 09:28:33;;;;;;;7.87;3.63;;;20.90;99.90;;;;;;4975158;28;20431;-79
2023/09/29 09:31:10;;;;;;;8.50;3.78;;;20.70;99.90;;;;;;5001381;28;21046;-79
2023/09/29 09:33:36;;;;;;;8.98;3.95;;;20.60;99.90;;;;;;5006614;28;20436;-79
2023/09/29 09:36:11;;;;;;;6.80;3.80;;;20.60;99.90;;;;;;5011222;28;20411;-81
2023/09/29 09:38:37;;;;;;;7.93;3.78;;;21.00;99.90;;;;;;4988567;28;20952;-80
2023/09/29 09:41:06;;;;;;;6.43;3.70;;;20.90;99.90;;;;;;4998947;28;20469;-79
2023/09/29 09:43:36;;;;;;;7.60;3.70;;;22.50;99.90;;;;;;4977893;28;20508;-80
2023/09/29 09:46:04;;;;;;;6.97;3.70;;;19.40;99.90;;;;;;5001223;28;20516;-81
2023/09/29 09:48:55;;;;;;;7.82;4.28;;;20.80;99.90;;;;;;5003709;28;20433;-80
2023/09/29 09:51:35;;;;;;;9.07;3.75;;;21.00;99.90;;;;;;4996666;28;20425;-80
2023/09/29 09:54:03;;;;;;;8.88;3.80;;;20.90;99.90;;;;;;4984579;28;20432;-80
2023/09/29 09:56:40;;;;;;;6.93;3.90;;;20.90;99.90;;;;;;5009797;28;21571;-80
2023/09/29 09:59:07;;;;;;;7.53;4.03;;;20.90;99.90;;;;;;4987833;28;20952;-81
2023/09/29 10:01:34;;;;;;;8.50;4.20;;;20.90;99.90;;;;;;4970238;28;20430;-81
2023/09/29 10:04:06;;;;;;;8.35;4.05;;;20.80;99.90;;;;;;4961392;28;20426;-80
2023/09/29 10:06:33;;;;;;;7.17;3.80;;;21.30;99.90;;;;;;4975395;28;20429;-80
2023/09/29 10:09:07;;;;;;;9.55;4.20;;;21.00;99.90;;;;;;5025646;28;20423;-79
2023/09/29 10:11:34;;;;;;;8.60;4.40;;;21.40;99.90;;;;;;4986707;28;20398;-81
2023/09/29 10:14:04;;;;;;;8.57;4.38;;;21.30;99.90;;;;;;4959377;28;20406;-81
2023/09/29 10:16:31;;;;;;;9.05;4.47;;;21.20;99.90;;;;;;4991592;28;20447;-81
2023/09/29 10:19:12;;;;;;;9.38;4.20;;;21.00;99.90;;;;;;4975194;28;20441;-81
2023/09/29 10:21:46;;;;;;;12.15;4.38;;;21.00;99.90;;;;;;4981594;28;20437;-82
2023/09/29 10:24:23;;;;;;;10.20;4.50;;;21.00;99.90;;;;;;5005352;28;20437;-81
2023/09/29 10:26:48;;;;;;;7.18;4.07;;;20.80;99.90;;;;;;4998873;28;20444;-80
2023/09/29 10:29:34;;;;;;;8.20;4.32;;;20.90;99.90;;;;;;4972950;28;20779;-81
2023/09/29 10:32:20;;;;;;;10.65;4.55;;;20.70;99.90;;;;;;4990861;28;20418;-81
2023/09/29 10:34:48;;;;;;;8.55;4.28;;;20.70;99.90;;;;;;4993764;28;20429;-81
2023/09/29 10:37:15;;;;;;;11.77;4.77;;;20.70;99.90;;;;;;4999268;28;20942;-79
2023/09/29 10:39:44;;;;;;;9.45;4.88;;;20.70;99.90;;;;;;5005824;28;20429;-79
2023/09/29 10:42:13;;;;;;;10.90;4.53;;;20.70;99.90;;;;;;4975077;28;20434;-81
2023/09/29 10:44:56;;;;;;;11.48;4.80;;;20.60;99.90;;;;;;4991109;28;20439;-79
2023/09/29 10:47:35;;;;;;;9.52;4.65;;;20.90;99.90;;;;;;4969195;28;20427;-81
2023/09/29 10:50:05;;;;;;;9.63;4.90;;;20.90;99.90;;;;;;4995455;28;20502;-80
2023/09/29 10:52:32;;;;;;;9.60;4.70;;;20.90;99.90;;;;;;4997028;28;20934;-80
2023/09/29 10:54:59;;;;;;;9.25;5.07;;;21.00;99.90;;;;;;5002225;28;20431;-81
2023/09/29 10:57:30;;;;;;;11.05;5.15;;;20.50;99.90;;;;;;4998693;28;20418;-81
2023/09/29 11:00:01;;;;;;;8.70;4.90;;;20.70;99.90;;;;;;4996521;28;20902;-80
2023/09/29 11:02:32;;;;;;;9.38;4.90;;;20.90;99.90;;;;;;4989803;28;20951;-81
2023/09/29 11:05:04;;;;;;;9.35;4.93;;;21.00;99.90;;;;;;4995551;28;20425;-78
2023/09/29 11:07:41;;;;;;;9.27;4.63;;;21.10;99.90;;;;;;5002621;28;20489;-77
2023/09/29 11:10:14;;;;;;;8.95;4.90;;;20.80;99.90;;;;;;5002384;28;21014;-80
2023/09/29 11:12:43;;;;;;;10.75;4.93;;;20.70;99.90;;;;;;4995013;28;20427;-80
2023/09/29 11:15:10;;;;;;;8.75;4.90;;;20.90;99.90;;;;;;4992966;28;20576;-79
2023/09/29 11:17:50;;;;;;;9.20;5.00;;;20.80;99.90;;;;;;4981472;28;20448;-79
2023/09/29 11:20:27;;;;;;;9.52;4.82;;;20.80;99.90;;;;;;4993592;28;20454;-79
2023/09/29 11:23:07;;;;;;;8.25;5.10;;;20.80;99.90;;;;;;4962431;28;20431;-79
2023/09/29 11:25:48;;;;;;;9.57;4.95;;;20.70;99.90;;;;;;4997899;28;20418;-79
2023/09/29 11:28:15;;;;;;;9.73;5.47;;;20.70;99.90;;;;;;4969201;28;20423;-80
2023/09/29 11:30:42;;;;;;;8.75;5.13;;;20.70;99.90;;;;;;4996948;28;20947;-77
2023/09/29 11:33:13;;;;;;;9.50;5.03;;;20.80;99.90;;;;;;4962293;28;20430;-79
2023/09/29 11:35:45;;;;;;;9.95;5.20;;;20.70;99.90;;;;;;4976428;28;20464;-79
2023/09/29 11:38:24;;;;;;;15.60;5.10;;;20.50;99.90;;;;;;4998685;28;20434;-79
2023/09/29 11:40:51;;;;;;;7.50;4.95;;;20.70;99.90;;;;;;4979716;28;20425;-80
2023/09/29 11:43:18;;;;;;;9.10;5.20;;;20.80;99.90;;;;;;4994728;28;20431;-77
2023/09/29 11:45:47;;;;;;;9.82;5.18;;;20.70;99.90;;;;;;4991458;28;20434;-77
2023/09/29 11:48:13;;;;;;;9.80;5.32;;;20.40;99.90;;;;;;4980261;28;20811;-77
2023/09/29 11:50:45;;;;;;;10.82;6.25;;;20.40;99.90;;;;;;5003017;28;20440;-76
2023/09/29 11:53:11;;;;;;;12.30;6.70;;;20.50;99.90;;;;;;4972955;28;20481;-76
2023/09/29 11:55:41;;;;;;;12.82;7.50;;;20.40;99.90;;;;;;4979943;28;20421;-76
2023/09/29 11:58:07;;;;;;;11.32;6.65;;;21.50;99.90;;;;;;5001393;28;20432;-77
2023/09/29 12:00:35;;;;;;;16.17;7.28;;;20.30;99.90;;;;;;4972842;28;20429;-76
2023/09/29 12:03:05;;;;;;;11.83;7.10;;;20.30;99.90;;;;;;4980958;28;20483;-77
2023/09/29 12:06:27;;;;;;;9.67;6.90;;;20.70;99.90;;;;;;4996391;28;20417;-77
2023/09/29 12:09:05;;;;;;;;;;;;;;;;;;;;;
2023/09/29 12:11:38;;;;;;;11.93;6.75;;;23.30;99.90;;;;;;4983435;28;21021;-79
2023/09/29 12:14:13;;;;;;;10.52;6.78;;;19.50;99.90;;;;;;4992399;28;20483;-79
2023/09/29 12:16:39;;;;;;;11.50;7.15;;;20.90;99.90;;;;;;4977185;28;20430;-78
2023/09/29 12:19:05;;;;;;;10.77;7.15;;;20.60;99.90;;;;;;4962236;28;20469;-78
2023/09/29 12:21:33;;;;;;;10.88;7.63;;;20.50;99.90;;;;;;4995524;28;20486;-78
2023/09/29 12:23:59;;;;;;;11.80;7.83;;;20.40;99.90;;;;;;5001938;28;20429;-77
2023/09/29 12:26:25;;;;;;;11.70;5.07;;;20.40;99.90;;;;;;4970216;28;20438;-75
2023/09/29 12:28:51;;;;;;;8.73;2.50;;;19.80;99.90;;;;;;5001775;28;20425;-76
2023/09/29 12:31:16;;;;;;;4.85;1.92;;;18.20;99.90;;;;;;5007635;28;20409;-76
2023/09/29 12:33:44;;;;;;;7.43;2.50;;;17.50;99.90;;;;;;5007152;28;20425;-75
2023/09/29 12:36:10;;;;;;;5.70;2.22;;;17.10;99.90;;;;;;4972201;28;20415;-76
2023/09/29 12:38:36;;;;;;;6.10;2.40;;;17.00;99.90;;;;;;4997859;28;20425;-76
2023/09/29 12:41:02;;;;;;;5.47;2.50;;;16.80;99.90;;;;;;4973171;28;20427;-76
2023/09/29 12:43:27;;;;;;;5.38;3.03;;;17.10;99.90;;;;;;4970440;28;20580;-76
2023/09/29 12:45:55;;;;;;;7.07;2.60;;;17.10;99.90;;;;;;4990392;28;20436;-76
2023/09/29 12:48:21;;;;;;;6.27;2.50;;;17.00;99.90;;;;;;4996279;28;20461;-75
2023/09/29 12:50:46;;;;;;;4.50;2.47;;;16.70;99.90;;;;;;4975319;28;20458;-76
2023/09/29 12:53:12;;;;;;;5.13;2.35;;;16.90;99.90;;;;;;4995730;28;21132;-76
2023/09/29 12:55:38;;;;;;;6.18;2.38;;;16.90;99.90;;;;;;4970153;28;20426;-76
2023/09/29 12:58:05;;;;;;;6.18;2.00;;;16.70;99.90;;;;;;4972779;28;20432;-76
2023/09/29 13:00:34;;;;;;;7.15;2.20;;;16.80;99.90;;;;;;4974092;28;20427;-76
2023/09/29 13:03:04;;;;;;;6.63;2.08;;;16.30;99.90;;;;;;4974309;28;20428;-76
2023/09/29 13:05:32;;;;;;;5.47;1.90;;;16.70;99.90;;;;;;4991922;28;20427;-76
2023/09/29 13:07:58;;;;;;;5.50;1.70;;;16.70;99.90;;;;;;4973773;28;20867;-76